createdAt,value
2018-03-29T00:00:17.668Z,994.52
2018-03-29T00:01:17.679Z,994.48
2018-03-29T00:02:17.710Z,994.46
2018-03-29T00:03:17.730Z,994.45
2018-03-29T00:04:17.745Z,994.45
2018-03-29T00:05:17.770Z,994.45
2018-03-29T00:06:17.784Z,994.43
2018-03-29T00:07:17.815Z,994.40
2018-03-29T00:08:17.836Z,994.38
2018-03-29T00:09:17.851Z,994.31
2018-03-29T00:10:17.891Z,994.27
2018-03-29T00:11:17.894Z,994.25
2018-03-29T00:12:17.925Z,994.21
2018-03-29T00:13:17.939Z,994.22
2018-03-29T00:14:17.958Z,994.19
2018-03-29T00:15:17.985Z,994.21
2018-03-29T00:17:18.008Z,994.22
2018-03-29T00:18:18.030Z,994.19
2018-03-29T00:19:18.049Z,994.19
2018-03-29T00:20:18.070Z,994.18
2018-03-29T00:21:18.096Z,994.17
2018-03-29T00:22:18.119Z,994.12
2018-03-29T00:23:18.136Z,994.11
2018-03-29T00:24:18.167Z,994.10
2018-03-29T00:25:18.240Z,994.02
2018-03-29T00:26:18.192Z,994.01
2018-03-29T00:27:18.218Z,994.05
2018-03-29T00:28:18.243Z,994.01
2018-03-29T00:29:18.257Z,993.97
2018-03-29T00:30:18.324Z,993.96
2018-03-29T00:31:18.301Z,993.92
2018-03-29T00:32:18.318Z,993.95
2018-03-29T00:33:18.345Z,993.92
2018-03-29T00:34:18.363Z,993.86
2018-03-29T00:35:18.387Z,993.87
2018-03-29T00:36:18.406Z,993.87
2018-03-29T00:37:18.422Z,993.86
2018-03-29T00:38:18.441Z,993.86
2018-03-29T00:39:18.470Z,993.91
2018-03-29T00:40:18.486Z,993.89
2018-03-29T00:41:18.505Z,993.82
2018-03-29T00:42:18.525Z,993.85
2018-03-29T00:43:18.540Z,993.82
2018-03-29T00:44:18.570Z,993.83
2018-03-29T00:45:18.584Z,993.86
2018-03-29T00:46:18.605Z,993.83
2018-03-29T00:47:18.633Z,993.84
2018-03-29T00:48:18.650Z,993.77
2018-03-29T00:49:18.679Z,993.78
2018-03-29T00:50:18.687Z,993.79
2018-03-29T00:51:18.719Z,993.76
2018-03-29T00:52:18.731Z,993.77
2018-03-29T00:53:18.747Z,993.71
2018-03-29T00:54:18.768Z,993.69
2018-03-29T00:55:18.811Z,993.66
2018-03-29T00:56:18.813Z,993.65
2018-03-29T00:57:18.909Z,993.69
2018-03-29T00:58:18.856Z,993.64
2018-03-29T00:59:18.875Z,993.63
2018-03-29T01:00:18.897Z,993.63
2018-03-29T01:01:18.913Z,993.62
2018-03-29T01:02:18.983Z,993.66
2018-03-29T01:03:18.954Z,993.64
2018-03-29T01:04:18.980Z,993.62
2018-03-29T01:05:18.998Z,993.64
2018-03-29T01:06:19.024Z,993.62
2018-03-29T01:07:19.039Z,993.60
2018-03-29T01:08:19.168Z,993.60
2018-03-29T01:09:19.099Z,993.59
2018-03-29T01:10:19.102Z,993.59
2018-03-29T01:11:19.119Z,993.62
2018-03-29T01:12:19.145Z,993.59
2018-03-29T01:13:19.161Z,993.59
2018-03-29T01:14:19.201Z,993.62
2018-03-29T01:15:19.205Z,993.59
2018-03-29T01:16:19.237Z,993.58
2018-03-29T01:17:19.252Z,993.56
2018-03-29T01:18:19.265Z,993.54
2018-03-29T01:19:19.283Z,993.54
2018-03-29T01:20:19.307Z,993.53
2018-03-29T01:21:19.332Z,993.46
2018-03-29T01:22:19.351Z,993.44
2018-03-29T01:23:19.378Z,993.46
2018-03-29T01:24:19.392Z,993.44
2018-03-29T01:25:19.412Z,993.39
2018-03-29T01:26:19.435Z,993.45
2018-03-29T01:27:19.457Z,993.41
2018-03-29T01:28:19.474Z,993.41
2018-03-29T01:29:19.497Z,993.36
2018-03-29T01:30:19.509Z,993.39
2018-03-29T01:31:19.533Z,993.44
2018-03-29T01:32:19.569Z,993.41
2018-03-29T01:33:19.573Z,993.41
2018-03-29T01:34:19.604Z,993.47
2018-03-29T01:35:19.620Z,993.43
2018-03-29T01:36:19.639Z,993.45
2018-03-29T01:37:19.656Z,993.46
2018-03-29T01:38:19.680Z,993.44
2018-03-29T01:39:19.723Z,993.46
2018-03-29T01:40:19.724Z,993.47
2018-03-29T01:41:19.746Z,993.44
2018-03-29T01:42:19.763Z,993.39
2018-03-29T01:43:19.783Z,993.42
2018-03-29T01:44:19.822Z,993.44
2018-03-29T01:45:19.819Z,993.47
2018-03-29T01:46:19.845Z,993.51
2018-03-29T01:47:19.877Z,993.52
2018-03-29T01:48:19.894Z,993.51
2018-03-29T01:49:19.908Z,993.49
2018-03-29T01:50:19.931Z,993.48
2018-03-29T01:51:19.946Z,993.49
2018-03-29T01:52:19.968Z,993.49
2018-03-29T01:53:19.989Z,993.47
2018-03-29T01:54:20.006Z,993.45
2018-03-29T01:55:20.032Z,993.45
2018-03-29T01:56:20.049Z,993.47
2018-03-29T01:57:20.067Z,993.50
2018-03-29T01:58:20.090Z,993.47
2018-03-29T01:59:20.112Z,993.48
2018-03-29T02:00:20.133Z,993.43
2018-03-29T02:01:20.151Z,993.40
2018-03-29T02:02:20.177Z,993.47
2018-03-29T02:03:20.202Z,993.41
2018-03-29T02:04:20.214Z,993.37
2018-03-29T02:05:20.237Z,993.29
2018-03-29T02:06:20.260Z,993.29
2018-03-29T02:07:20.291Z,993.26
2018-03-29T02:08:20.297Z,993.28
2018-03-29T02:09:20.329Z,993.33
2018-03-29T02:10:20.342Z,993.30
2018-03-29T02:11:20.363Z,993.37
2018-03-29T02:12:20.379Z,993.37
2018-03-29T02:13:20.404Z,993.37
2018-03-29T02:14:20.422Z,993.41
2018-03-29T02:15:20.446Z,993.37
2018-03-29T02:16:20.475Z,993.38
2018-03-29T02:17:20.484Z,993.36
2018-03-29T02:18:20.505Z,993.34
2018-03-29T02:19:20.523Z,993.40
2018-03-29T02:20:20.548Z,993.44
2018-03-29T02:21:20.564Z,993.46
2018-03-29T02:22:20.592Z,993.45
2018-03-29T02:23:20.610Z,993.44
2018-03-29T02:24:20.627Z,993.47
2018-03-29T02:25:20.656Z,993.47
2018-03-29T02:26:20.682Z,993.44
2018-03-29T02:27:20.690Z,993.50
2018-03-29T02:28:20.724Z,993.64
2018-03-29T02:29:20.732Z,993.64
2018-03-29T02:30:20.754Z,993.66
2018-03-29T02:31:20.779Z,993.69
2018-03-29T02:32:20.796Z,993.70
2018-03-29T02:33:20.824Z,993.85
2018-03-29T02:34:20.838Z,993.85
2018-03-29T02:35:20.868Z,993.81
2018-03-29T02:36:20.879Z,993.88
2018-03-29T02:37:20.928Z,993.78
2018-03-29T02:38:20.926Z,993.74
2018-03-29T02:39:20.952Z,993.79
2018-03-29T02:40:20.979Z,993.81
2018-03-29T02:41:20.983Z,993.80
2018-03-29T02:42:21.018Z,993.83
2018-03-29T02:43:21.035Z,993.76
2018-03-29T02:44:21.043Z,993.73
2018-03-29T02:45:21.065Z,993.75
2018-03-29T02:46:21.108Z,993.68
2018-03-29T02:47:21.112Z,993.76
2018-03-29T02:48:21.189Z,993.78
2018-03-29T02:49:21.157Z,993.80
2018-03-29T02:50:21.177Z,993.79
2018-03-29T02:51:21.192Z,993.76
2018-03-29T02:52:21.213Z,993.66
2018-03-29T02:53:21.230Z,993.66
2018-03-29T02:54:21.252Z,993.64
2018-03-29T02:55:21.280Z,993.67
2018-03-29T02:56:21.294Z,993.69
2018-03-29T02:57:21.380Z,993.71
2018-03-29T02:58:21.338Z,993.71
2018-03-29T02:59:21.408Z,993.72
2018-03-29T03:00:21.381Z,993.73
2018-03-29T03:01:21.489Z,993.75
2018-03-29T03:02:21.426Z,993.85
2018-03-29T03:03:21.446Z,993.80
2018-03-29T03:04:21.462Z,993.81
2018-03-29T03:05:21.478Z,993.81
2018-03-29T03:06:21.504Z,993.79
2018-03-29T03:07:21.529Z,993.80
2018-03-29T03:08:21.545Z,993.83
2018-03-29T03:09:21.584Z,993.84
2018-03-29T03:10:21.581Z,993.87
2018-03-29T03:11:21.606Z,993.91
2018-03-29T03:12:21.628Z,993.87
2018-03-29T03:13:21.650Z,993.89
2018-03-29T03:14:21.674Z,993.94
2018-03-29T03:15:21.687Z,993.86
2018-03-29T03:16:21.712Z,993.87
2018-03-29T03:17:21.739Z,993.88
2018-03-29T03:18:21.762Z,993.91
2018-03-29T03:19:21.776Z,993.96
2018-03-29T03:20:21.793Z,993.98
2018-03-29T03:21:21.810Z,994.00
2018-03-29T03:22:21.834Z,994.02
2018-03-29T03:23:21.854Z,994.01
2018-03-29T03:24:21.872Z,994.10
2018-03-29T03:25:21.905Z,994.05
2018-03-29T03:26:21.922Z,994.17
2018-03-29T03:27:21.936Z,994.07
2018-03-29T03:28:21.960Z,994.12
2018-03-29T03:29:21.983Z,994.11
2018-03-29T03:30:22.003Z,994.15
2018-03-29T03:31:22.021Z,994.12
2018-03-29T03:32:22.116Z,994.17
2018-03-29T03:33:22.070Z,994.18
2018-03-29T03:34:22.086Z,994.21
2018-03-29T03:35:22.109Z,994.24
2018-03-29T03:36:22.151Z,994.27
2018-03-29T03:37:22.155Z,994.26
2018-03-29T03:38:22.166Z,994.32
2018-03-29T03:39:22.194Z,994.28
2018-03-29T03:40:22.217Z,994.33
2018-03-29T03:41:22.233Z,994.33
2018-03-29T03:42:22.252Z,994.32
2018-03-29T03:43:22.276Z,994.34
2018-03-29T03:44:22.296Z,994.34
2018-03-29T03:45:22.317Z,994.39
2018-03-29T03:46:22.338Z,994.40
2018-03-29T03:47:22.360Z,994.43
2018-03-29T03:48:22.390Z,994.44
2018-03-29T03:49:22.403Z,994.43
2018-03-29T03:50:22.429Z,994.45
2018-03-29T03:51:22.441Z,994.43
2018-03-29T03:52:22.469Z,994.45
2018-03-29T03:53:22.494Z,994.49
2018-03-29T03:54:22.505Z,994.50
2018-03-29T03:55:22.542Z,994.50
2018-03-29T03:56:22.551Z,994.47
2018-03-29T03:57:22.580Z,994.48
2018-03-29T03:58:22.601Z,994.48
2018-03-29T03:59:22.611Z,994.52
2018-03-29T04:00:22.639Z,994.50
2018-03-29T04:01:22.650Z,994.57
2018-03-29T04:02:22.674Z,994.58
2018-03-29T04:03:22.700Z,994.59
2018-03-29T04:04:22.722Z,994.64
2018-03-29T04:05:22.755Z,994.68
2018-03-29T04:06:22.761Z,994.71
2018-03-29T04:07:22.778Z,994.69
2018-03-29T04:08:22.801Z,994.71
2018-03-29T04:09:22.818Z,994.70
2018-03-29T04:10:22.848Z,994.74
2018-03-29T04:11:22.861Z,994.82
2018-03-29T04:12:22.892Z,994.72
2018-03-29T04:13:22.917Z,994.71
2018-03-29T04:14:22.935Z,994.79
2018-03-29T04:15:22.954Z,994.76
2018-03-29T04:16:22.969Z,994.82
2018-03-29T04:17:22.995Z,994.88
2018-03-29T04:18:23.012Z,994.87
2018-03-29T04:19:23.031Z,994.73
2018-03-29T04:20:23.054Z,994.91
2018-03-29T04:21:23.073Z,994.89
2018-03-29T04:22:23.097Z,994.94
2018-03-29T04:23:23.123Z,994.89
2018-03-29T04:24:23.148Z,994.97
2018-03-29T04:25:23.164Z,995.04
2018-03-29T04:26:23.254Z,995.06
2018-03-29T04:27:23.212Z,995.02
2018-03-29T04:28:23.234Z,994.90
2018-03-29T04:29:23.248Z,994.99
2018-03-29T04:30:23.277Z,994.96
2018-03-29T04:31:23.303Z,995.13
2018-03-29T04:32:23.312Z,994.88
2018-03-29T04:33:23.327Z,995.05
2018-03-29T04:34:23.347Z,995.12
2018-03-29T04:35:23.374Z,995.13
2018-03-29T04:36:23.393Z,995.13
2018-03-29T04:37:24.017Z,995.20
2018-03-29T04:38:23.433Z,995.24
2018-03-29T04:39:23.473Z,995.22
2018-03-29T04:40:23.488Z,995.33
2018-03-29T04:41:23.501Z,995.31
2018-03-29T04:42:23.520Z,995.36
2018-03-29T04:43:23.553Z,995.38
2018-03-29T04:44:23.560Z,995.33
2018-03-29T04:45:23.597Z,995.42
2018-03-29T04:46:23.603Z,995.46
2018-03-29T04:47:23.628Z,995.38
2018-03-29T04:48:24.510Z,995.45
2018-03-29T04:49:23.669Z,995.51
2018-03-29T04:50:23.698Z,995.47
2018-03-29T04:51:23.714Z,995.57
2018-03-29T04:52:23.737Z,995.62
2018-03-29T04:53:23.754Z,995.61
2018-03-29T04:54:23.775Z,995.70
2018-03-29T04:55:23.797Z,995.70
2018-03-29T04:56:23.821Z,995.74
2018-03-29T04:57:23.842Z,995.75
2018-03-29T04:58:23.861Z,995.82
2018-03-29T04:59:23.887Z,995.78
2018-03-29T05:00:23.913Z,995.78
2018-03-29T05:01:23.985Z,995.75
2018-03-29T05:02:23.947Z,995.79
2018-03-29T05:03:23.963Z,995.86
2018-03-29T05:04:23.998Z,995.85
2018-03-29T05:05:24.002Z,995.91
2018-03-29T05:06:24.028Z,995.93
2018-03-29T05:07:24.052Z,995.98
2018-03-29T05:08:24.085Z,995.98
2018-03-29T05:09:24.150Z,996.06
2018-03-29T05:10:24.111Z,996.04
2018-03-29T05:11:24.144Z,996.06
2018-03-29T05:12:24.163Z,996.00
2018-03-29T05:13:24.183Z,996.05
2018-03-29T05:14:24.193Z,996.07
2018-03-29T05:15:24.241Z,996.15
2018-03-29T05:16:24.242Z,996.10
2018-03-29T05:17:24.295Z,996.15
2018-03-29T05:18:24.293Z,996.15
2018-03-29T05:19:24.311Z,996.18
2018-03-29T05:20:24.336Z,996.18
2018-03-29T05:21:24.344Z,996.20
2018-03-29T05:22:24.359Z,996.20
2018-03-29T05:23:24.388Z,996.13
2018-03-29T05:24:24.404Z,996.25
2018-03-29T05:25:24.441Z,996.21
2018-03-29T05:26:24.454Z,996.27
2018-03-29T05:27:24.521Z,996.36
2018-03-29T05:28:24.493Z,996.34
2018-03-29T05:29:24.534Z,996.28
2018-03-29T05:30:24.536Z,996.31
2018-03-29T05:31:24.554Z,996.35
2018-03-29T05:32:24.576Z,996.45
2018-03-29T05:33:24.604Z,996.40
2018-03-29T05:34:24.616Z,996.42
2018-03-29T05:35:24.638Z,996.43
2018-03-29T05:36:24.659Z,996.55
2018-03-29T05:37:24.681Z,996.42
2018-03-29T05:38:24.709Z,996.56
2018-03-29T05:39:24.731Z,996.56
2018-03-29T05:40:24.751Z,996.61
2018-03-29T05:41:24.764Z,996.57
2018-03-29T05:42:24.799Z,996.68
2018-03-29T05:43:24.810Z,996.62
2018-03-29T05:44:24.855Z,996.61
2018-03-29T05:45:24.853Z,996.70
2018-03-29T05:46:24.889Z,996.75
2018-03-29T05:47:24.894Z,996.74
2018-03-29T05:48:24.918Z,996.84
2018-03-29T05:49:24.942Z,996.70
2018-03-29T05:50:24.960Z,996.79
2018-03-29T05:51:24.981Z,996.67
2018-03-29T05:52:25.000Z,996.73
2018-03-29T05:53:25.021Z,996.82
2018-03-29T05:54:25.040Z,996.84
2018-03-29T05:55:25.068Z,996.81
2018-03-29T05:56:25.084Z,996.83
2018-03-29T05:57:25.112Z,996.84
2018-03-29T05:58:25.132Z,996.95
2018-03-29T05:59:25.143Z,996.83
2018-03-29T06:00:25.191Z,996.86
2018-03-29T06:01:25.194Z,996.90
2018-03-29T06:02:25.220Z,996.87
2018-03-29T06:03:25.226Z,996.94
2018-03-29T06:04:25.270Z,996.93
2018-03-29T06:05:25.276Z,996.95
2018-03-29T06:06:25.292Z,996.97
2018-03-29T06:07:25.318Z,997.04
2018-03-29T06:08:25.341Z,997.00
2018-03-29T06:09:25.353Z,997.05
2018-03-29T06:10:25.377Z,997.01
2018-03-29T06:11:25.393Z,997.10
2018-03-29T06:12:25.419Z,997.03
2018-03-29T06:13:25.449Z,997.07
2018-03-29T06:14:25.472Z,997.10
2018-03-29T06:15:25.491Z,997.02
2018-03-29T06:16:25.504Z,997.05
2018-03-29T06:17:25.537Z,996.99
2018-03-29T06:18:25.546Z,997.07
2018-03-29T06:19:25.581Z,997.03
2018-03-29T06:20:25.602Z,997.00
2018-03-29T06:21:25.608Z,997.03
2018-03-29T06:22:25.638Z,997.03
2018-03-29T06:23:25.677Z,997.06
2018-03-29T06:24:25.674Z,997.03
2018-03-29T06:25:25.692Z,997.03
2018-03-29T06:26:25.730Z,997.08
2018-03-29T06:27:25.735Z,997.11
2018-03-29T06:28:25.772Z,997.11
2018-03-29T06:29:25.785Z,997.09
2018-03-29T06:30:25.800Z,997.16
2018-03-29T06:31:25.839Z,997.14
2018-03-29T06:32:25.842Z,997.07
2018-03-29T06:33:25.869Z,997.19
2018-03-29T06:34:25.884Z,997.17
2018-03-29T06:35:25.903Z,997.16
2018-03-29T06:36:25.933Z,997.22
2018-03-29T06:37:25.950Z,997.28
2018-03-29T06:38:25.972Z,997.31
2018-03-29T06:39:25.995Z,997.29
2018-03-29T06:40:26.011Z,997.27
2018-03-29T06:41:26.030Z,997.31
2018-03-29T06:42:26.055Z,997.27
2018-03-29T06:43:26.088Z,997.30
2018-03-29T06:44:26.101Z,997.29
2018-03-29T06:45:26.161Z,997.35
2018-03-29T06:46:26.155Z,997.37
2018-03-29T06:47:26.161Z,997.37
2018-03-29T06:48:26.200Z,997.40
2018-03-29T06:49:26.204Z,997.41
2018-03-29T06:50:26.233Z,997.38
2018-03-29T06:51:26.240Z,997.36
2018-03-29T06:52:26.264Z,997.42
2018-03-29T06:53:26.294Z,997.43
2018-03-29T06:54:26.315Z,997.40
2018-03-29T06:55:26.329Z,997.53
2018-03-29T06:56:26.351Z,997.49
2018-03-29T06:57:26.371Z,997.56
2018-03-29T06:58:26.391Z,997.50
2018-03-29T06:59:26.422Z,997.47
2018-03-29T07:00:26.439Z,997.55
2018-03-29T07:01:26.467Z,997.57
2018-03-29T07:02:26.476Z,997.62
2018-03-29T07:03:26.513Z,997.56
2018-03-29T07:04:26.525Z,997.55
2018-03-29T07:05:26.538Z,997.60
2018-03-29T07:06:26.567Z,997.68
2018-03-29T07:07:26.584Z,997.62
2018-03-29T07:08:26.616Z,997.64
2018-03-29T07:09:26.630Z,997.64
2018-03-29T07:10:26.687Z,997.72
2018-03-29T07:11:26.671Z,997.68
2018-03-29T07:12:26.708Z,997.65
2018-03-29T07:13:26.710Z,997.72
2018-03-29T07:14:26.741Z,997.72
2018-03-29T07:15:26.758Z,997.73
2018-03-29T07:16:26.781Z,997.74
2018-03-29T07:17:26.793Z,997.79
2018-03-29T07:18:26.834Z,997.80
2018-03-29T07:19:26.837Z,997.85
2018-03-29T07:20:26.862Z,997.83
2018-03-29T07:21:26.882Z,997.86
2018-03-29T07:22:26.902Z,997.92
2018-03-29T07:23:26.927Z,997.85
2018-03-29T07:24:26.952Z,997.90
2018-03-29T07:25:26.966Z,997.92
2018-03-29T07:26:26.982Z,997.96
2018-03-29T07:27:27.050Z,997.92
2018-03-29T07:28:27.047Z,997.98
2018-03-29T07:29:27.063Z,997.91
2018-03-29T07:30:27.078Z,998.00
2018-03-29T07:31:27.099Z,997.99
2018-03-29T07:32:27.117Z,998.02
2018-03-29T07:33:27.132Z,998.02
2018-03-29T07:34:27.155Z,998.03
2018-03-29T07:35:27.190Z,998.08
2018-03-29T07:36:27.206Z,998.03
2018-03-29T07:37:27.218Z,998.01
2018-03-29T07:38:27.252Z,998.06
2018-03-29T07:39:27.270Z,998.01
2018-03-29T07:40:28.016Z,997.98
2018-03-29T07:41:27.309Z,998.01
2018-03-29T07:42:27.349Z,998.09
2018-03-29T07:43:27.349Z,998.10
2018-03-29T07:44:27.371Z,998.07
2018-03-29T07:45:27.406Z,998.11
2018-03-29T07:46:27.420Z,998.04
2018-03-29T07:47:27.439Z,998.16
2018-03-29T07:48:27.458Z,998.14
2018-03-29T07:49:27.476Z,998.20
2018-03-29T07:50:27.496Z,998.19
2018-03-29T07:51:27.644Z,998.27
2018-03-29T07:52:27.540Z,998.23
2018-03-29T07:53:27.631Z,998.27
2018-03-29T07:54:27.585Z,998.35
2018-03-29T07:55:27.604Z,998.29
2018-03-29T07:56:27.631Z,998.33
2018-03-29T07:57:27.665Z,998.36
2018-03-29T07:58:27.670Z,998.35
2018-03-29T07:59:27.703Z,998.37
2018-03-29T08:00:27.761Z,998.43
2018-03-29T08:01:27.742Z,998.39
2018-03-29T08:02:27.761Z,998.44
2018-03-29T08:03:27.775Z,998.41
2018-03-29T08:04:27.800Z,998.46
2018-03-29T08:05:27.822Z,998.42
2018-03-29T08:06:27.852Z,998.51
2018-03-29T08:07:27.872Z,998.53
2018-03-29T08:08:27.893Z,998.48
2018-03-29T08:09:27.925Z,998.53
2018-03-29T08:10:27.931Z,998.55
2018-03-29T08:11:27.948Z,998.53
2018-03-29T08:12:27.970Z,998.51
2018-03-29T08:13:28.002Z,998.50
2018-03-29T08:14:28.013Z,998.51
2018-03-29T08:15:28.039Z,998.57
2018-03-29T08:16:28.065Z,998.53
2018-03-29T08:17:28.082Z,998.63
2018-03-29T08:18:28.105Z,998.64
2018-03-29T08:19:28.119Z,998.66
2018-03-29T08:20:28.148Z,998.64
2018-03-29T08:21:28.166Z,998.66
2018-03-29T08:22:28.193Z,998.68
2018-03-29T08:23:28.222Z,998.68
2018-03-29T08:24:28.231Z,998.72
2018-03-29T08:25:28.252Z,998.72
2018-03-29T08:26:28.272Z,998.77
2018-03-29T08:27:28.304Z,998.71
2018-03-29T08:28:28.318Z,998.72
2018-03-29T08:29:28.342Z,998.82
2018-03-29T08:30:28.360Z,998.80
2018-03-29T08:31:28.392Z,998.82
2018-03-29T08:32:28.474Z,998.90
2018-03-29T08:33:28.426Z,998.87
2018-03-29T08:34:28.447Z,998.87
2018-03-29T08:35:28.472Z,998.83
2018-03-29T08:36:28.499Z,998.93
2018-03-29T08:37:28.506Z,998.95
2018-03-29T08:38:28.536Z,998.91
2018-03-29T08:39:28.551Z,998.90
2018-03-29T08:40:28.573Z,998.97
2018-03-29T08:41:28.596Z,998.93
2018-03-29T08:42:28.618Z,998.92
2018-03-29T08:43:28.645Z,999.05
2018-03-29T08:44:28.662Z,999.08
2018-03-29T08:45:28.683Z,999.07
2018-03-29T08:46:28.711Z,999.07
2018-03-29T08:47:28.730Z,999.14
2018-03-29T08:48:28.755Z,999.19
2018-03-29T08:49:28.776Z,999.14
2018-03-29T08:50:28.796Z,999.12
2018-03-29T08:51:28.823Z,999.06
2018-03-29T08:52:28.845Z,999.13
2018-03-29T08:53:28.874Z,999.11
2018-03-29T08:54:28.889Z,999.10
2018-03-29T08:55:28.931Z,999.19
2018-03-29T08:56:28.924Z,999.17
2018-03-29T08:57:28.947Z,999.12
2018-03-29T08:58:28.966Z,999.23
2018-03-29T08:59:28.996Z,999.26
2018-03-29T09:00:29.038Z,999.28
2018-03-29T09:01:29.033Z,999.28
2018-03-29T09:02:29.077Z,999.35
2018-03-29T09:03:29.190Z,999.31
2018-03-29T09:04:29.110Z,999.32
2018-03-29T09:05:29.146Z,999.34
2018-03-29T09:06:29.154Z,999.41
2018-03-29T09:07:29.175Z,999.36
2018-03-29T09:08:29.205Z,999.37
2018-03-29T09:09:29.228Z,999.39
2018-03-29T09:10:29.238Z,999.40
2018-03-29T09:11:29.259Z,999.44
2018-03-29T09:12:29.275Z,999.44
2018-03-29T09:13:29.314Z,999.46
2018-03-29T09:14:29.324Z,999.49
2018-03-29T09:15:29.399Z,999.47
2018-03-29T09:16:29.430Z,999.42
2018-03-29T09:17:29.391Z,999.51
2018-03-29T09:18:29.415Z,999.50
2018-03-29T09:19:29.438Z,999.53
2018-03-29T09:20:29.448Z,999.53
2018-03-29T09:21:29.485Z,999.47
2018-03-29T09:22:29.498Z,999.45
2018-03-29T09:23:29.527Z,999.50
2018-03-29T09:24:29.546Z,999.47
2018-03-29T09:25:29.568Z,999.44
2018-03-29T09:26:29.593Z,999.46
2018-03-29T09:27:29.629Z,999.44
2018-03-29T09:28:29.648Z,999.50
2018-03-29T09:29:29.702Z,999.53
2018-03-29T09:30:29.726Z,999.53
2018-03-29T09:31:29.714Z,999.51
2018-03-29T09:32:29.726Z,999.60
2018-03-29T09:33:29.744Z,999.65
2018-03-29T09:34:29.775Z,999.66
2018-03-29T09:35:29.798Z,999.66
2018-03-29T09:36:29.825Z,999.72
2018-03-29T09:37:29.838Z,999.70
2018-03-29T09:38:29.867Z,999.68
2018-03-29T09:39:29.886Z,999.74
2018-03-29T09:40:29.920Z,999.75
2018-03-29T09:41:29.949Z,999.83
2018-03-29T09:42:29.947Z,999.82
2018-03-29T09:43:29.980Z,1000.01
2018-03-29T09:44:30.001Z,1000.07
2018-03-29T09:45:30.031Z,999.83
2018-03-29T09:46:30.062Z,1000.02
2018-03-29T09:47:30.083Z,1000.04
2018-03-29T09:48:30.092Z,999.97
2018-03-29T09:49:30.128Z,1000.05
2018-03-29T09:50:30.137Z,1000.07
2018-03-29T09:51:30.162Z,1000.01
2018-03-29T09:52:30.193Z,999.87
2018-03-29T09:53:30.219Z,999.88
2018-03-29T09:54:30.237Z,999.81
2018-03-29T09:55:30.286Z,999.89
2018-03-29T09:56:30.285Z,999.91
2018-03-29T09:57:31.126Z,999.93
2018-03-29T09:58:30.342Z,999.89
2018-03-29T09:59:30.375Z,999.82
2018-03-29T10:00:30.429Z,999.89
2018-03-29T10:01:30.422Z,999.86
2018-03-29T10:02:30.449Z,999.72
2018-03-29T10:03:30.460Z,999.82
2018-03-29T10:04:30.548Z,999.82
2018-03-29T10:05:30.528Z,999.88
2018-03-29T10:06:30.546Z,999.90
2018-03-29T10:07:30.605Z,999.85
2018-03-29T10:08:30.675Z,999.86
2018-03-29T10:09:30.624Z,999.99
2018-03-29T10:10:30.667Z,999.85
2018-03-29T10:11:30.666Z,999.84
2018-03-29T10:12:30.699Z,1000.00
2018-03-29T10:13:30.742Z,999.89
2018-03-29T10:14:30.809Z,999.89
2018-03-29T10:15:30.791Z,999.85
2018-03-29T10:16:30.800Z,999.97
2018-03-29T10:17:30.823Z,999.98
2018-03-29T10:18:30.852Z,999.92
2018-03-29T10:19:30.880Z,999.95
2018-03-29T10:20:30.904Z,999.80
2018-03-29T10:21:30.936Z,999.86
2018-03-29T10:22:31.102Z,999.77
2018-03-29T10:23:30.985Z,999.92
2018-03-29T10:24:31.534Z,999.82
2018-03-29T10:25:31.031Z,999.82
2018-03-29T10:26:31.105Z,999.89
2018-03-29T10:27:31.102Z,999.83
2018-03-29T10:28:31.117Z,999.82
2018-03-29T10:29:31.137Z,999.85
2018-03-29T10:30:31.167Z,999.85
2018-03-29T10:31:31.186Z,999.85
2018-03-29T10:32:31.236Z,999.83
2018-03-29T10:33:31.233Z,999.90
2018-03-29T10:34:31.268Z,999.90
2018-03-29T10:35:31.353Z,999.97
2018-03-29T10:36:31.319Z,999.96
2018-03-29T10:37:31.418Z,999.98
2018-03-29T10:38:31.362Z,1000.12
2018-03-29T10:39:31.385Z,1000.03
2018-03-29T10:40:31.415Z,1000.00
2018-03-29T10:41:31.441Z,1000.05
2018-03-29T10:42:31.461Z,1000.00
2018-03-29T10:43:31.559Z,1000.04
2018-03-29T10:44:31.510Z,1000.07
2018-03-29T10:45:31.535Z,1000.06
2018-03-29T10:46:31.681Z,1000.02
2018-03-29T10:47:31.596Z,1000.07
2018-03-29T10:48:31.639Z,1000.02
2018-03-29T10:49:31.633Z,1000.05
2018-03-29T10:50:31.657Z,1000.07
2018-03-29T10:51:31.689Z,1000.13
2018-03-29T10:52:31.726Z,1000.05
2018-03-29T10:53:31.731Z,1000.11
2018-03-29T10:54:31.754Z,1000.07
2018-03-29T10:55:31.777Z,1000.13
2018-03-29T10:56:31.825Z,1000.08
2018-03-29T10:57:32.540Z,1000.14
2018-03-29T10:58:31.848Z,1000.17
2018-03-29T10:59:31.882Z,1000.14
2018-03-29T11:00:31.895Z,1000.12
2018-03-29T11:01:31.927Z,1000.15
2018-03-29T11:02:31.945Z,1000.17
2018-03-29T11:03:31.962Z,1000.17
2018-03-29T11:04:31.998Z,1000.17
2018-03-29T11:05:32.033Z,1000.13
2018-03-29T11:06:32.039Z,1000.20
2018-03-29T11:07:32.058Z,1000.25
2018-03-29T11:08:32.084Z,1000.22
2018-03-29T11:09:32.108Z,1000.19
2018-03-29T11:10:32.140Z,1000.22
2018-03-29T11:11:32.155Z,1000.26
2018-03-29T11:12:32.176Z,1000.22
2018-03-29T11:13:32.209Z,1000.16
2018-03-29T11:14:32.231Z,1000.21
2018-03-29T11:15:32.250Z,1000.27
2018-03-29T11:16:32.284Z,1000.28
2018-03-29T11:17:32.293Z,1000.35
2018-03-29T11:18:32.332Z,1000.35
2018-03-29T11:19:32.340Z,1000.38
2018-03-29T11:20:32.362Z,1000.38
2018-03-29T11:21:32.386Z,1000.41
2018-03-29T11:22:32.410Z,1000.44
2018-03-29T11:23:32.435Z,1000.42
2018-03-29T11:24:32.469Z,1000.42
2018-03-29T11:25:32.482Z,1000.48
2018-03-29T11:26:32.515Z,1000.43
2018-03-29T11:27:32.542Z,1000.42
2018-03-29T11:28:32.556Z,1000.38
2018-03-29T11:29:32.580Z,1000.40
2018-03-29T11:30:32.596Z,1000.44
2018-03-29T11:31:32.615Z,1000.44
2018-03-29T11:32:32.644Z,1000.46
2018-03-29T11:33:32.664Z,1000.44
2018-03-29T11:34:32.688Z,1000.43
2018-03-29T11:35:32.713Z,1000.43
2018-03-29T11:36:32.744Z,1000.44
2018-03-29T11:37:32.764Z,1000.51
2018-03-29T11:38:32.784Z,1000.48
2018-03-29T11:39:32.808Z,1000.50
2018-03-29T11:40:32.829Z,1000.56
2018-03-29T11:41:32.867Z,1000.56
2018-03-29T11:42:32.875Z,1000.49
2018-03-29T11:43:32.901Z,1000.58
2018-03-29T11:44:32.919Z,1000.59
2018-03-29T11:45:32.951Z,1000.64
2018-03-29T11:46:32.971Z,1000.61
2018-03-29T11:47:32.991Z,1000.63
2018-03-29T11:48:33.012Z,1000.69
2018-03-29T11:49:33.038Z,1000.73
2018-03-29T11:50:33.058Z,1000.63
2018-03-29T11:51:33.103Z,1000.67
2018-03-29T11:52:33.108Z,1000.66
2018-03-29T11:53:33.129Z,1000.69
2018-03-29T11:54:33.162Z,1000.66
2018-03-29T11:55:33.176Z,1000.76
2018-03-29T11:56:33.251Z,1000.67
2018-03-29T11:57:33.222Z,1000.69
2018-03-29T11:58:33.247Z,1000.64
2018-03-29T11:59:33.286Z,1000.70
2018-03-29T12:00:33.298Z,1000.66
2018-03-29T12:01:33.326Z,1000.68
2018-03-29T12:02:33.352Z,1000.70
2018-03-29T12:03:33.364Z,1000.67
2018-03-29T12:04:33.382Z,1000.72
2018-03-29T12:05:33.406Z,1000.69
2018-03-29T12:06:33.430Z,1000.73
2018-03-29T12:07:33.466Z,1000.70
2018-03-29T12:08:33.482Z,1000.77
2018-03-29T12:09:33.505Z,1000.69
2018-03-29T12:10:33.536Z,1000.68
2018-03-29T12:11:33.548Z,1000.64
2018-03-29T12:12:33.578Z,1000.64
2018-03-29T12:13:33.593Z,1000.67
2018-03-29T12:14:33.620Z,1000.70
2018-03-29T12:15:33.646Z,1000.72
2018-03-29T12:16:33.664Z,1000.70
2018-03-29T12:17:33.685Z,1000.71
2018-03-29T12:18:33.718Z,1000.83
2018-03-29T12:19:33.733Z,1000.82
2018-03-29T12:20:33.770Z,1000.79
2018-03-29T12:21:33.789Z,1000.83
2018-03-29T12:22:33.812Z,1000.83
2018-03-29T12:23:33.827Z,1000.87
2018-03-29T12:24:33.858Z,1000.85
2018-03-29T12:25:33.873Z,1000.89